Time;durP1;ratioP1;P1;durP2;ratioP2;P2;SDS_P1;SDS_P2;PMS_P1;PMS_P2;Temp;Humidity;BMP_temperature;BMP_pressure;BME280_temperature;BME280_humidity;BME280_pressure;Samples;Min_cycle;Max_cycle;Signal;HPM_P1;HPM_P2
2023/04/22 00:01:24;;;;;;;;;;;;;;;7.92;74.06;94844.28;4993351;28;975;-55
2023/04/22 00:03:50;;;;;;;;;;;;;;;7.82;74.31;94844.34;4993196;28;1898;-55
2023/04/22 00:06:17;;;;;;;;;;;;;;;7.84;74.57;94849.53;4993545;28;1042;-55
2023/04/22 00:08:43;;;;;;;;;;;;;;;7.86;74.41;94839.56;4976294;28;1278;-55
2023/04/22 00:11:09;;;;;;;;;;;;;;;7.85;74.64;94853.00;5000129;28;1546;-55
2023/04/22 00:13:36;;;;;;;;;;;;;;;7.67;75.05;94851.19;5012962;28;979;-55
2023/04/22 00:16:02;;;;;;;;;;;;;;;7.48;75.34;94848.66;5012865;28;1298;-55
2023/04/22 00:18:28;;;;;;;;;;;;;;;7.48;75.49;94851.31;5012738;28;1117;-55
2023/04/22 00:20:54;;;;;;;;;;;;;;;7.59;75.86;94846.63;5012838;28;1236;-55
2023/04/22 00:23:20;;;;;;;;;;;;;;;7.45;75.63;94846.28;5012949;28;1993;-55
2023/04/22 00:25:46;;;;;;;;;;;;;;;7.42;75.38;94848.25;5012943;28;1066;-55
2023/04/22 00:28:12;;;;;;;;;;;;;;;7.49;75.39;94847.66;5016623;28;970;-55
2023/04/22 00:30:38;;;;;;;;;;;;;;;7.60;75.32;94858.09;5016650;28;1073;-55
2023/04/22 00:33:04;;;;;;;;;;;;;;;7.68;75.55;94854.69;5016477;28;1024;-55
2023/04/22 00:35:30;;;;;;;;;;;;;;;7.47;75.25;94855.78;5016531;28;999;-55
2023/04/22 00:37:57;;;;;;;;;;;;;;;7.21;76.11;94859.16;4998914;28;1054;-55
2023/04/22 00:40:23;;;;;;;;;;;;;;;6.98;76.67;94855.19;5016173;28;1038;-55
2023/04/22 00:42:49;;;;;;;;;;;;;;;6.95;77.21;94853.69;5016090;28;2001;-55
2023/04/22 00:45:18;;;;;;;;;;;;;;;7.14;77.65;94858.06;5016356;28;982;-55
2023/04/22 00:47:45;;;;;;;;;;;;;;;7.02;76.70;94853.94;5016332;28;1040;-55
2023/04/22 00:50:11;;;;;;;;;;;;;;;6.96;76.13;94852.69;5016145;28;1041;-55
2023/04/22 00:52:37;;;;;;;;;;;;;;;6.80;76.95;94852.47;5016092;28;1237;-55
2023/04/22 00:55:03;;;;;;;;;;;;;;;6.95;77.02;94852.84;5015872;28;1054;-55
2023/04/22 00:57:30;;;;;;;;;;;;;;;7.08;76.40;94857.84;5016151;28;1071;-55
2023/04/22 00:59:56;;;;;;;;;;;;;;;7.18;76.28;94856.78;5016160;28;1033;-55
2023/04/22 01:02:23;;;;;;;;;;;;;;;7.27;76.08;94862.22;5015951;28;1990;-55
2023/04/22 01:04:49;;;;;;;;;;;;;;;7.18;75.87;94867.41;5015678;28;1887;-55
2023/04/22 01:07:15;;;;;;;;;;;;;;;6.99;76.39;94867.50;5015610;28;1054;-55
2023/04/22 01:09:42;;;;;;;;;;;;;;;7.03;76.35;94866.22;5015956;28;990;-55
2023/04/22 01:12:08;;;;;;;;;;;;;;;7.03;76.21;94874.19;5000945;28;1658;-55
2023/04/22 01:14:34;;;;;;;;;;;;;;;7.02;76.28;94868.06;4996068;28;1101;-55
2023/04/22 01:17:00;;;;;;;;;;;;;;;6.90;76.59;94863.91;4996120;28;963;-55
2023/04/22 01:19:28;;;;;;;;;;;;;;;6.80;77.31;94871.06;4995899;28;1002;-55
2023/04/22 01:21:54;;;;;;;;;;;;;;;6.93;76.76;94876.06;4995809;28;1250;-55
2023/04/22 01:24:21;;;;;;;;;;;;;;;7.08;76.73;94869.28;4978757;28;1034;-55
2023/04/22 01:26:47;;;;;;;;;;;;;;;7.11;76.62;94858.34;4995741;28;1042;-54
2023/04/22 01:29:14;;;;;;;;;;;;;;;7.12;76.52;94864.53;4995785;28;1066;-55
2023/04/22 01:31:40;;;;;;;;;;;;;;;7.17;76.30;94863.09;4995708;28;1027;-55
2023/04/22 01:34:06;;;;;;;;;;;;;;;7.00;76.55;94866.50;4995668;28;1019;-55
2023/04/22 01:36:32;;;;;;;;;;;;;;;6.91;77.01;94864.75;4995797;28;979;-55
2023/04/22 01:38:59;;;;;;;;;;;;;;;6.81;77.68;94860.31;4977199;28;1050;-56
2023/04/22 01:41:25;;;;;;;;;;;;;;;6.95;77.85;94864.31;4995702;28;970;-56
2023/04/22 01:43:52;;;;;;;;;;;;;;;7.00;77.04;94866.50;4995276;28;1989;-55
2023/04/22 01:46:18;;;;;;;;;;;;;;;6.88;77.42;94863.19;4995265;28;1216;-55
2023/04/22 01:48:49;;;;;;;;;;;;;;;6.77;78.06;94860.72;4995384;28;979;-55
2023/04/22 01:51:16;;;;;;;;;;;;;;;6.79;78.32;94858.75;4995516;28;959;-56
2023/04/22 01:53:42;;;;;;;;;;;;;;;7.01;77.91;94862.88;4995304;28;983;-55
2023/04/22 01:56:08;;;;;;;;;;;;;;;7.21;77.98;94863.66;4995251;28;1010;-55
2023/04/22 01:58:35;;;;;;;;;;;;;;;7.18;78.42;94858.63;4977836;28;1264;-55
2023/04/22 02:01:01;;;;;;;;;;;;;;;7.07;78.35;94866.78;4995447;28;978;-55
2023/04/22 02:03:27;;;;;;;;;;;;;;;7.12;78.33;94860.03;4994804;28;1914;-55
2023/04/22 02:05:52;;;;;;;;;;;;;;;7.30;78.25;94860.06;4994984;28;1661;-55
2023/04/22 02:08:18;;;;;;;;;;;;;;;7.41;78.06;94867.03;4994960;28;999;-56
2023/04/22 02:10:44;;;;;;;;;;;;;;;7.19;78.46;94866.44;4998450;28;1561;-56
2023/04/22 02:13:10;;;;;;;;;;;;;;;7.05;78.93;94872.22;5014549;28;1129;-56
2023/04/22 02:15:38;;;;;;;;;;;;;;;7.28;78.52;94866.53;5014574;28;1019;-56
2023/04/22 02:18:05;;;;;;;;;;;;;;;7.34;78.63;94861.47;5014039;28;1125;-56
2023/04/22 02:20:31;;;;;;;;;;;;;;;7.46;78.66;94874.56;5014184;28;1193;-56
2023/04/22 02:22:57;;;;;;;;;;;;;;;7.59;77.86;94872.41;5014347;28;1991;-56
2023/04/22 02:25:23;;;;;;;;;;;;;;;7.73;78.16;94869.19;5014472;28;1023;-56
2023/04/22 02:27:49;;;;;;;;;;;;;;;7.82;77.85;94868.31;5014131;28;1062;-56
2023/04/22 02:30:15;;;;;;;;;;;;;;;7.85;78.30;94874.31;5014320;28;974;-56
2023/04/22 02:32:41;;;;;;;;;;;;;;;7.76;78.26;94876.91;5014323;28;1013;-56
2023/04/22 02:35:07;;;;;;;;;;;;;;;7.68;78.29;94876.78;5014287;28;989;-56
2023/04/22 02:37:33;;;;;;;;;;;;;;;7.72;78.64;94874.66;5013956;28;1121;-56
2023/04/22 02:39:59;;;;;;;;;;;;;;;7.82;78.57;94875.47;5013986;28;1046;-56
2023/04/22 02:42:25;;;;;;;;;;;;;;;7.94;78.20;94868.09;5014039;28;1997;-56
2023/04/22 02:44:51;;;;;;;;;;;;;;;8.10;77.91;94876.22;5014225;28;1049;-56
2023/04/22 02:47:17;;;;;;;;;;;;;;;7.96;77.86;94882.91;5013743;28;955;-56
2023/04/22 02:49:43;;;;;;;;;;;;;;;7.83;78.49;94879.78;5013660;28;1073;-56
2023/04/22 02:52:09;;;;;;;;;;;;;;;7.66;79.73;94884.09;5013785;28;1113;-56
2023/04/22 02:54:35;;;;;;;;;;;;;;;7.61;80.00;94875.75;5014077;28;982;-56
2023/04/22 02:57:01;;;;;;;;;;;;;;;7.67;79.74;94880.47;5013677;28;1021;-56
2023/04/22 02:59:27;;;;;;;;;;;;;;;7.90;78.98;94893.34;5013818;28;1033;-56
2023/04/22 03:01:53;;;;;;;;;;;;;;;7.97;78.82;94895.25;5013840;28;1066;-56
2023/04/22 03:04:20;;;;;;;;;;;;;;;8.01;78.40;94891.28;5013568;28;1981;-56
2023/04/22 03:06:49;;;;;;;;;;;;;;;8.08;78.33;94893.31;5013711;28;1046;-56
2023/04/22 03:09:16;;;;;;;;;;;;;;;8.15;78.20;94883.75;5013506;28;1060;-56
2023/04/22 03:11:42;;;;;;;;;;;;;;;8.16;77.93;94888.09;5002001;28;1580;-56
2023/04/22 03:14:08;;;;;;;;;;;;;;;8.21;77.91;94897.31;4994140;28;970;-56
2023/04/22 03:16:35;;;;;;;;;;;;;;;8.26;77.33;94891.50;4993833;28;1290;-56
2023/04/22 03:19:01;;;;;;;;;;;;;;;8.34;77.63;94893.41;4994166;28;1065;-55
2023/04/22 03:21:27;;;;;;;;;;;;;;;8.30;77.98;94894.69;4993488;28;1261;-56
2023/04/22 03:23:53;;;;;;;;;;;;;;;8.28;77.68;94892.19;4993721;28;1953;-56
2023/04/22 03:26:19;;;;;;;;;;;;;;;8.21;78.27;94897.31;4993833;28;1030;-56
2023/04/22 03:28:45;;;;;;;;;;;;;;;8.09;78.95;94895.84;4976448;28;1055;-56
2023/04/22 03:31:11;;;;;;;;;;;;;;;7.96;79.59;94901.53;4993851;28;971;-56
2023/04/22 03:33:37;;;;;;;;;;;;;;;7.87;79.71;94907.75;4993803;28;1018;-56
2023/04/22 03:36:03;;;;;;;;;;;;;;;7.84;79.82;94908.09;4993941;28;1091;-56
2023/04/22 03:38:29;;;;;;;;;;;;;;;7.88;79.90;94904.13;4993858;28;986;-56
2023/04/22 03:40:55;;;;;;;;;;;;;;;7.98;79.74;94912.03;4993552;28;1050;-56
2023/04/22 03:43:21;;;;;;;;;;;;;;;8.01;79.99;94917.06;4993704;28;1958;-56
2023/04/22 03:45:47;;;;;;;;;;;;;;;7.99;80.00;94916.41;5004569;28;1061;-56
2023/04/22 03:48:13;;;;;;;;;;;;;;;7.92;79.56;94913.47;5032911;28;1022;-56
2023/04/22 03:50:39;;;;;;;;;;;;;;;7.76;79.89;94919.47;5032749;28;1105;-56
2023/04/22 03:53:05;;;;;;;;;;;;;;;7.82;80.88;94920.72;5033112;28;1029;-56
2023/04/22 03:55:32;;;;;;;;;;;;;;;7.85;80.59;94925.72;5032946;28;1057;-56
2023/04/22 03:57:58;;;;;;;;;;;;;;;7.74;81.31;94918.78;5032756;28;1067;-56
2023/04/22 04:00:24;;;;;;;;;;;;;;;7.73;80.84;94922.44;5032872;28;1042;-56
2023/04/22 04:02:50;;;;;;;;;;;;;;;7.91;79.78;94927.81;5036089;28;1987;-56
2023/04/22 04:05:16;;;;;;;;;;;;;;;8.05;80.24;94921.09;5036819;28;975;-56
2023/04/22 04:07:42;;;;;;;;;;;;;;;8.02;80.08;94924.91;5036551;28;1046;-57
2023/04/22 04:10:09;;;;;;;;;;;;;;;8.05;79.66;94930.94;5036774;28;1198;-57
2023/04/22 04:12:35;;;;;;;;;;;;;;;8.26;78.93;94939.44;5017677;28;1553;-57
2023/04/22 04:15:01;;;;;;;;;;;;;;;8.36;78.76;94947.38;5016932;28;991;-56
2023/04/22 04:17:27;;;;;;;;;;;;;;;8.44;78.57;94951.97;5016422;28;1058;-56
2023/04/22 04:19:54;;;;;;;;;;;;;;;8.50;78.91;94951.34;5016707;28;1046;-56
2023/04/22 04:22:20;;;;;;;;;;;;;;;8.62;78.52;94946.63;5016269;28;1986;-56
2023/04/22 04:24:46;;;;;;;;;;;;;;;8.71;78.56;94957.19;5016387;28;1058;-56
2023/04/22 04:27:12;;;;;;;;;;;;;;;8.75;79.10;94953.22;5016392;28;1054;-56
2023/04/22 04:29:40;;;;;;;;;;;;;;;8.59;78.99;94953.94;5016610;28;1031;-57
2023/04/22 04:32:09;;;;;;;;;;;;;;;8.45;80.10;94966.97;5016524;28;1034;-57
2023/04/22 04:34:36;;;;;;;;;;;;;;;8.41;79.88;94969.06;5016301;28;1662;-56
2023/04/22 04:37:02;;;;;;;;;;;;;;;8.54;78.28;94966.06;4999070;28;1050;-55
2023/04/22 04:39:29;;;;;;;;;;;;;;;8.66;77.37;94966.66;5016435;28;1045;-55
2023/04/22 04:41:57;;;;;;;;;;;;;;;8.84;77.06;94966.63;5016455;28;1029;-56
2023/04/22 04:44:25;;;;;;;;;;;;;;;8.94;76.49;94968.19;5015971;28;1989;-55
2023/04/22 04:46:51;;;;;;;;;;;;;;;9.02;75.07;94975.41;4998880;28;963;-55
2023/04/22 04:49:17;;;;;;;;;;;;;;;9.25;74.84;94972.25;5016019;28;1045;-56
2023/04/22 04:51:43;;;;;;;;;;;;;;;9.36;75.53;94982.66;5016233;28;1018;-55
2023/04/22 04:54:09;;;;;;;;;;;;;;;9.46;75.10;94982.53;5016197;28;1037;-55
2023/04/22 04:56:35;;;;;;;;;;;;;;;9.61;76.38;94978.28;5016178;28;1027;-55
2023/04/22 04:59:01;;;;;;;;;;;;;;;9.73;75.98;94985.03;5016214;28;1050;-55
2023/04/22 05:01:27;;;;;;;;;;;;;;;9.79;77.07;94986.22;5015624;28;1105;-55
2023/04/22 05:03:53;;;;;;;;;;;;;;;9.85;76.04;94985.56;5015753;28;1914;-55
2023/04/22 05:06:19;;;;;;;;;;;;;;;9.89;76.33;94983.41;5015630;28;1078;-55
2023/04/22 05:08:45;;;;;;;;;;;;;;;9.89;76.29;94988.75;5015668;28;1025;-56
2023/04/22 05:11:11;;;;;;;;;;;;;;;9.95;76.25;94990.78;5015656;28;1552;-56
2023/04/22 05:13:37;;;;;;;;;;;;;;;10.18;73.55;94992.84;5015583;28;990;-57
2023/04/22 05:16:03;;;;;;;;;;;;;;;10.37;72.22;94989.09;5015592;28;1046;-55
2023/04/22 05:18:29;;;;;;;;;;;;;;;10.54;69.82;94991.63;5015794;28;974;-56
2023/04/22 05:20:58;;;;;;;;;;;;;;;10.81;70.35;94989.66;5015132;28;1244;-53
2023/04/22 05:23:24;;;;;;;;;;;;;;;11.05;69.23;94982.63;5015203;28;1919;-55
2023/04/22 05:25:51;;;;;;;;;;;;;;;11.11;66.60;94987.31;5015333;28;1042;-56
2023/04/22 05:28:17;;;;;;;;;;;;;;;11.23;66.12;94987.78;5015431;28;989;-56
2023/04/22 05:30:43;;;;;;;;;;;;;;;11.27;65.78;94986.47;5015125;28;964;-55
2023/04/22 05:33:09;;;;;;;;;;;;;;;11.45;66.12;94978.22;5015403;28;1011;-56
2023/04/22 05:35:35;;;;;;;;;;;;;;;11.77;64.54;94979.16;5015150;28;1030;-56
2023/04/22 05:38:01;;;;;;;;;;;;;;;12.06;63.19;94984.75;5015371;28;1042;-56
2023/04/22 05:40:27;;;;;;;;;;;;;;;12.19;63.14;94981.50;5015078;28;1047;-56
2023/04/22 05:42:54;;;;;;;;;;;;;;;12.58;59.76;94983.31;5015224;28;1906;-56
2023/04/22 05:45:20;;;;;;;;;;;;;;;12.99;57.86;94988.38;5015224;28;1054;-56
2023/04/22 05:47:46;;;;;;;;;;;;;;;13.18;56.68;94989.72;4997806;28;1092;-57
2023/04/22 05:50:13;;;;;;;;;;;;;;;13.36;56.10;94988.63;5015001;28;1372;-57
2023/04/22 05:52:39;;;;;;;;;;;;;;;13.53;55.85;94989.28;5014958;28;1121;-57
2023/04/22 05:55:05;;;;;;;;;;;;;;;13.60;56.30;94979.47;5014865;28;1110;-55
2023/04/22 05:57:31;;;;;;;;;;;;;;;13.70;54.70;94981.88;5014726;28;1098;-55
2023/04/22 06:00:00;;;;;;;;;;;;;;;13.82;54.26;94983.09;5015031;28;1124;-56
2023/04/22 06:02:26;;;;;;;;;;;;;;;14.03;54.26;94979.66;5014604;28;1985;-56
2023/04/22 06:04:52;;;;;;;;;;;;;;;14.16;53.71;94979.00;5014678;28;1106;-56
2023/04/22 06:07:18;;;;;;;;;;;;;;;14.83;51.87;94984.16;4997166;28;1042;-56
2023/04/22 06:09:44;;;;;;;;;;;;;;;14.89;51.78;94996.03;5014554;28;821;-56
2023/04/22 06:12:10;;;;;;;;;;;;;;;15.14;51.85;94990.22;4999297;28;1654;-55
2023/04/22 06:14:36;;;;;;;;;;;;;;;15.28;52.05;94988.50;4994988;28;1089;-56
2023/04/22 06:17:02;;;;;;;;;;;;;;;15.32;51.19;94993.28;4977663;28;1059;-56
2023/04/22 06:19:28;;;;;;;;;;;;;;;15.57;51.38;94992.88;4994699;28;1110;-56
2023/04/22 06:21:54;;;;;;;;;;;;;;;15.87;49.82;95001.59;4994690;28;1083;-56
2023/04/22 06:24:21;;;;;;;;;;;;;;;15.95;49.36;94988.00;4986108;28;2515;-56
2023/04/22 06:26:47;;;;;;;;;;;;;;;16.11;50.12;94986.00;5014526;28;1048;-56
2023/04/22 06:29:13;;;;;;;;;;;;;;;16.24;48.49;94993.31;5014184;28;1043;-57
2023/04/22 06:31:39;;;;;;;;;;;;;;;16.35;47.57;94996.28;5014541;28;1100;-56
2023/04/22 06:34:05;;;;;;;;;;;;;;;16.34;48.52;94994.63;5014224;28;994;-56
2023/04/22 06:36:36;;;;;;;;;;;;;;;16.32;47.34;94995.84;5013989;28;1025;-56
2023/04/22 06:39:04;;;;;;;;;;;;;;;16.38;49.76;94993.16;5014355;28;1038;-56
2023/04/22 06:41:30;;;;;;;;;;;;;;;16.65;48.46;94990.56;5014003;28;1190;-56
2023/04/22 06:43:56;;;;;;;;;;;;;;;16.54;49.08;94994.72;5014130;28;1910;-56
2023/04/22 06:46:22;;;;;;;;;;;;;;;16.72;49.96;94988.72;5014037;28;935;-56
2023/04/22 06:48:48;;;;;;;;;;;;;;;17.04;50.48;94994.47;5014311;28;1021;-56
2023/04/22 06:51:14;;;;;;;;;;;;;;;17.25;50.30;94990.75;5013763;28;972;-57
2023/04/22 06:53:40;;;;;;;;;;;;;;;17.14;49.97;95000.28;5013975;28;1213;-57
2023/04/22 06:56:06;;;;;;;;;;;;;;;16.92;50.72;94996.06;5013616;28;963;-57
2023/04/22 06:58:32;;;;;;;;;;;;;;;16.36;49.76;94994.41;5013844;28;982;-57
2023/04/22 07:00:58;;;;;;;;;;;;;;;16.55;48.54;94990.97;5013951;28;1042;-57
2023/04/22 07:03:24;;;;;;;;;;;;;;;16.88;47.93;94994.81;5013578;28;1914;-57
2023/04/22 07:05:50;;;;;;;;;;;;;;;17.24;47.67;94999.03;4996058;28;998;-57
2023/04/22 07:08:17;;;;;;;;;;;;;;;17.55;48.58;94984.94;5013466;28;1063;-57
2023/04/22 07:10:43;;;;;;;;;;;;;;;17.61;48.11;94992.22;5013738;28;1369;-57
2023/04/22 07:13:09;;;;;;;;;;;;;;;17.25;46.57;95001.56;5013785;28;1002;-56
2023/04/22 07:15:35;;;;;;;;;;;;;;;17.59;47.18;94990.75;5013500;28;1027;-57
2023/04/22 07:18:02;;;;;;;;;;;;;;;18.24;43.96;94994.41;5013917;28;1110;-56
2023/04/22 07:20:28;;;;;;;;;;;;;;;18.92;42.93;95001.25;5013304;28;1086;-57
2023/04/22 07:22:54;;;;;;;;;;;;;;;19.33;40.88;95010.81;5013175;28;1906;-57
2023/04/22 07:25:20;;;;;;;;;;;;;;;19.15;41.18;95008.84;5013254;28;1055;-56
2023/04/22 07:27:46;;;;;;;;;;;;;;;19.40;42.69;95003.44;5013280;28;1042;-56
2023/04/22 07:30:12;;;;;;;;;;;;;;;19.18;42.47;95005.69;5013443;28;1018;-57
2023/04/22 07:32:38;;;;;;;;;;;;;;;19.26;42.68;94999.19;5013341;28;1046;-57
2023/04/22 07:35:04;;;;;;;;;;;;;;;19.83;41.66;95005.44;5013765;28;920;-57
2023/04/22 07:37:30;;;;;;;;;;;;;;;20.30;41.06;94996.84;5017190;28;1093;-57
2023/04/22 07:39:56;;;;;;;;;;;;;;;20.01;41.40;95001.91;5017641;28;986;-57
2023/04/22 07:42:23;;;;;;;;;;;;;;;19.17;42.45;95004.03;5017443;28;1938;-57
2023/04/22 07:44:49;;;;;;;;;;;;;;;18.91;43.47;95000.44;5017252;28;1055;-57
2023/04/22 07:47:15;;;;;;;;;;;;;;;19.03;44.29;94994.34;5017137;28;1050;-57
2023/04/22 07:49:42;;;;;;;;;;;;;;;19.28;44.35;94992.50;5017348;28;1025;-57
2023/04/22 07:52:08;;;;;;;;;;;;;;;19.89;42.89;94990.97;5016775;28;2266;-57
2023/04/22 07:54:34;;;;;;;;;;;;;;;20.59;43.68;94995.25;4988666;28;2834;-57
2023/04/22 07:57:00;;;;;;;;;;;;;;;20.93;42.61;94984.00;5016880;28;1102;-56
2023/04/22 07:59:26;;;;;;;;;;;;;;;20.66;41.54;94995.22;5016937;28;962;-56
2023/04/22 08:01:52;;;;;;;;;;;;;;;20.44;42.67;94992.91;5016908;28;1066;-56
2023/04/22 08:04:21;;;;;;;;;;;;;;;20.50;41.47;94987.63;5016880;28;1987;-56
2023/04/22 08:06:47;;;;;;;;;;;;;;;20.72;42.22;94991.59;5016241;28;1049;-56
2023/04/22 08:09:13;;;;;;;;;;;;;;;20.84;41.52;94989.75;5016620;28;1073;-57
2023/04/22 08:11:38;;;;;;;;;;;;;;;20.60;42.28;94990.66;5016930;28;1345;-56
2023/04/22 08:14:04;;;;;;;;;;;;;;;20.28;42.65;94988.09;5016953;28;1058;-57
2023/04/22 08:16:31;;;;;;;;;;;;;;;20.04;42.28;94992.53;5016489;28;1046;-57
2023/04/22 08:18:57;;;;;;;;;;;;;;;19.79;41.79;94990.66;5016499;28;978;-57
2023/04/22 08:21:23;;;;;;;;;;;;;;;19.86;40.98;94986.00;5016442;28;1107;-57
2023/04/22 08:24:08;;;;;;;;;;;;;;;20.50;41.21;94979.50;5016245;28;1906;-56
2023/04/22 08:26:53;;;;;;;;;;;;;;;20.62;38.14;94999.41;5016700;28;1527;-56
2023/04/22 08:29:39;;;;;;;;;;;;;;;20.37;40.83;94981.28;5016301;28;1563;-56
2023/04/22 08:32:25;;;;;;;;;;;;;;;20.70;39.43;94985.56;5016149;28;1694;-57
2023/04/22 08:35:10;;;;;;;;;;;;;;;20.57;37.43;94986.50;5016426;28;1997;-56
2023/04/22 08:37:56;;;;;;;;;;;;;;;20.71;38.20;94979.03;5016304;28;1227;-56
2023/04/22 08:40:41;;;;;;;;;;;;;;;20.98;36.38;94986.84;5016418;28;1441;-56
2023/04/22 08:43:27;;;;;;;;;;;;;;;21.18;37.69;94979.25;5015883;28;2001;-56
2023/04/22 08:46:14;;;;;;;;;;;;;;;21.61;34.97;94985.53;5016205;28;2065;-56
2023/04/22 08:49:02;;;;;;;;;;;;;;;21.66;36.32;94976.66;5015608;28;1689;-56
2023/04/22 08:51:48;;;;;;;;;;;;;;;21.42;35.42;94973.88;5016054;28;1543;-56
2023/04/22 08:54:15;;;;;;;;;;;;;;;21.44;34.90;94979.94;5015724;28;1034;-56
2023/04/22 08:56:43;;;;;;;;;;;;;;;21.80;34.36;94983.56;4998267;28;1050;-56
2023/04/22 08:59:10;;;;;;;;;;;;;;;22.18;35.22;94974.09;4998684;28;1053;-56
2023/04/22 09:01:37;;;;;;;;;;;;;;;22.22;34.66;94976.09;5016107;28;1052;-56
2023/04/22 09:04:23;;;;;;;;;;;;;;;22.12;34.94;94969.56;5015770;28;1910;-57
2023/04/22 09:07:09;;;;;;;;;;;;;;;22.53;35.88;94968.59;5015842;28;1523;-55
2023/04/22 09:09:36;;;;;;;;;;;;;;;22.35;33.53;94975.03;5015680;28;1105;-57
2023/04/22 09:12:04;;;;;;;;;;;;;;;21.97;33.59;94968.16;5001818;28;1286;-56
2023/04/22 09:14:31;;;;;;;;;;;;;;;21.97;32.47;94965.44;4996290;28;1018;-56
2023/04/22 09:16:57;;;;;;;;;;;;;;;22.60;34.82;94961.13;4996359;28;1057;-57
2023/04/22 09:19:24;;;;;;;;;;;;;;;22.60;32.69;94966.56;4996193;28;1004;-57
2023/04/22 09:21:51;;;;;;;;;;;;;;;22.57;31.49;94969.78;4995761;28;1218;-57
2023/04/22 09:24:18;;;;;;;;;;;;;;;22.45;33.10;94965.44;4995958;28;1910;-57
2023/04/22 09:26:44;;;;;;;;;;;;;;;22.73;33.05;94959.22;4996094;28;971;-57
2023/04/22 09:29:15;;;;;;;;;;;;;;;22.75;33.50;94949.72;4995741;28;1043;-56
2023/04/22 09:31:41;;;;;;;;;;;;;;;22.87;33.12;94938.75;4996082;28;1034;-56
2023/04/22 09:34:07;;;;;;;;;;;;;;;23.01;33.81;94942.00;4995778;28;1006;-56
2023/04/22 09:36:36;;;;;;;;;;;;;;;23.24;33.98;94932.94;4995722;28;1076;-56
2023/04/22 09:39:03;;;;;;;;;;;;;;;23.12;33.29;94935.72;4995912;28;1010;-57
2023/04/22 09:41:34;;;;;;;;;;;;;;;23.01;34.28;94933.84;4995627;28;1050;-54
2023/04/22 09:44:01;;;;;;;;;;;;;;;23.00;32.80;94930.28;4995398;28;1910;-56
2023/04/22 09:46:28;;;;;;;;;;;;;;;23.01;32.79;94931.09;4995728;28;1021;-57
2023/04/22 09:48:55;;;;;;;;;;;;;;;22.86;31.99;94930.81;4995489;28;1029;-56
2023/04/22 09:51:21;;;;;;;;;;;;;;;22.76;31.75;94926.81;4995323;28;1046;-56
2023/04/22 09:53:58;;;;;;;;;;;;;;;22.69;32.08;94920.72;4995576;28;993;-56
2023/04/22 09:56:40;;;;;;;;;;;;;;;22.50;32.17;94913.75;4995674;28;1300;-55
2023/04/22 09:59:07;;;;;;;;;;;;;;;22.25;30.36;94923.06;4994638;28;1018;-56
2023/04/22 10:01:38;;;;;;;;;;;;;;;22.43;32.79;94911.19;4995149;28;1140;-55
2023/04/22 10:04:04;;;;;;;;;;;;;;;22.59;32.74;94905.00;4995560;28;1918;-57
2023/04/22 10:06:30;;;;;;;;;;;;;;;22.36;32.35;94905.88;4995216;28;986;-55
2023/04/22 10:08:58;;;;;;;;;;;;;;;22.83;34.19;94898.63;4995305;28;1050;-55
2023/04/22 10:11:24;;;;;;;;;;;;;;;22.94;32.75;94895.00;5004037;28;1557;-55
2023/04/22 10:13:50;;;;;;;;;;;;;;;22.97;31.49;94902.69;5014675;28;1168;-55
2023/04/22 10:16:18;;;;;;;;;;;;;;;22.83;32.91;94895.91;5014848;28;1054;-55
2023/04/22 10:18:45;;;;;;;;;;;;;;;23.04;31.72;94900.66;5014815;28;971;-56
2023/04/22 10:24:41;;;;;;;;;;;;;;;23.71;32.77;94886.25;4995069;28;1916;-55
2023/04/22 10:27:09;;;;;;;;;;;;;;;23.42;32.18;94896.41;4994962;28;1022;-55
2023/04/22 10:29:41;;;;;;;;;;;;;;;22.60;31.25;94900.38;4995038;28;1017;-55
2023/04/22 10:32:16;;;;;;;;;;;;;;;21.80;32.75;94894.56;4994852;28;1057;-55
2023/04/22 10:34:43;;;;;;;;;;;;;;;21.25;35.54;94900.31;4994761;28;1574;-54
2023/04/22 10:37:10;;;;;;;;;;;;;;;20.59;36.17;94893.94;4994491;28;1054;-55
2023/04/22 10:39:37;;;;;;;;;;;;;;;20.19;36.10;94903.41;4994624;28;1519;-55
2023/04/22 10:42:05;;;;;;;;;;;;;;;19.66;36.61;94902.06;4994787;28;1030;-54
2023/04/22 10:44:44;;;;;;;;;;;;;;;19.21;37.17;94915.81;4994620;28;1981;-54
2023/04/22 10:47:10;;;;;;;;;;;;;;;18.70;37.18;94912.19;4994521;28;979;-55
2023/04/22 10:49:36;;;;;;;;;;;;;;;18.42;38.73;94909.84;4994793;28;1057;-55
2023/04/22 10:52:05;;;;;;;;;;;;;;;18.23;40.87;94900.78;4994582;28;1029;-55
2023/04/22 10:54:35;;;;;;;;;;;;;;;18.17;43.98;94898.06;4994230;28;1050;-56
2023/04/22 10:57:13;;;;;;;;;;;;;;;17.83;45.71;94881.09;4994312;28;1089;-56
2023/04/22 10:59:46;;;;;;;;;;;;;;;17.39;44.15;94891.59;4994329;28;1027;-54
2023/04/22 11:02:13;;;;;;;;;;;;;;;17.07;46.21;94899.50;4994163;28;998;-55
2023/04/22 11:04:39;;;;;;;;;;;;;;;16.72;50.18;94891.56;4994161;28;1903;-55
2023/04/22 11:07:13;;;;;;;;;;;;;;;16.72;47.36;94893.44;4994353;28;1130;-56
2023/04/22 11:09:39;;;;;;;;;;;;;;;16.85;52.13;94892.66;4994012;28;1089;-55
2023/04/22 11:12:24;;;;;;;;;;;;;;;16.67;53.13;94895.91;4978486;28;1644;-57
2023/04/22 11:14:50;;;;;;;;;;;;;;;16.67;52.67;94901.31;4974851;28;979;-56
2023/04/22 11:17:18;;;;;;;;;;;;;;;16.72;51.11;94902.34;4974537;28;1030;-56
2023/04/22 11:19:45;;;;;;;;;;;;;;;16.73;49.33;94916.66;4974941;28;1053;-56
2023/04/22 11:22:12;;;;;;;;;;;;;;;16.67;53.15;94910.22;4975018;28;1855;-57
2023/04/22 11:24:38;;;;;;;;;;;;;;;16.58;52.90;94912.28;4993861;28;2009;-56
2023/04/22 11:27:04;;;;;;;;;;;;;;;16.47;48.57;94912.88;4993612;28;1963;-56
2023/04/22 11:29:30;;;;;;;;;;;;;;;16.28;50.51;94910.97;4993900;28;1038;-56
2023/04/22 11:31:56;;;;;;;;;;;;;;;15.95;56.18;94904.41;4993735;28;1114;-56
2023/04/22 11:34:22;;;;;;;;;;;;;;;15.70;58.66;94881.63;4993059;28;986;-56
2023/04/22 11:36:48;;;;;;;;;;;;;;;15.43;61.25;94882.31;4993965;28;1058;-56
2023/04/22 11:39:16;;;;;;;;;;;;;;;15.46;59.10;94880.25;4993649;28;1956;-56
2023/04/22 11:41:42;;;;;;;;;;;;;;;15.66;57.66;94881.19;4993921;28;971;-57
2023/04/22 11:44:08;;;;;;;;;;;;;;;15.72;58.06;94890.34;4993901;28;1899;-56
2023/04/22 11:46:38;;;;;;;;;;;;;;;15.69;58.08;94874.56;4993786;28;1006;-56
2023/04/22 11:49:10;;;;;;;;;;;;;;;15.78;60.62;94874.25;4993834;28;1029;-56
2023/04/22 11:51:50;;;;;;;;;;;;;;;16.02;59.89;94869.38;4993808;28;1037;-56
2023/04/22 11:54:16;;;;;;;;;;;;;;;16.11;58.44;94870.84;4993465;28;991;-57
2023/04/22 11:56:42;;;;;;;;;;;;;;;16.16;60.43;94868.41;4993870;28;982;-56
2023/04/22 11:59:08;;;;;;;;;;;;;;;16.28;58.19;94867.81;4993691;28;1041;-57
2023/04/22 12:01:34;;;;;;;;;;;;;;;16.64;57.88;94859.38;4976492;28;970;-56
2023/04/22 12:04:00;;;;;;;;;;;;;;;17.10;55.31;94863.16;4993406;28;1993;-56
2023/04/22 12:06:28;;;;;;;;;;;;;;;17.28;55.35;94857.94;4993294;28;1058;-56
2023/04/22 12:08:54;;;;;;;;;;;;;;;17.44;54.49;94859.38;4993656;28;979;-56
2023/04/22 12:11:20;;;;;;;;;;;;;;;17.75;52.65;94860.53;5001683;28;1334;-56
2023/04/22 12:13:49;;;;;;;;;;;;;;;17.81;48.96;94870.50;5013330;28;1030;-56
2023/04/22 12:16:18;;;;;;;;;;;;;;;17.98;49.00;94860.06;5013162;28;994;-56
2023/04/22 12:18:48;;;;;;;;;;;;;;;18.04;48.59;94855.66;5012822;28;1252;-56
2023/04/22 12:21:16;;;;;;;;;;;;;;;18.21;48.64;94847.91;5013052;28;1022;-56
2023/04/22 12:23:47;;;;;;;;;;;;;;;18.49;48.49;94834.00;5015599;28;1914;-56
2023/04/22 12:26:14;;;;;;;;;;;;;;;18.92;46.53;94834.13;5016839;28;1057;-56
2023/04/22 12:28:40;;;;;;;;;;;;;;;18.79;44.72;94834.22;5016735;28;963;-56
2023/04/22 12:31:07;;;;;;;;;;;;;;;18.92;46.14;94828.72;5016591;28;1300;-56
2023/04/22 12:33:34;;;;;;;;;;;;;;;18.97;43.14;94840.75;5016650;28;1057;-56
2023/04/22 12:36:00;;;;;;;;;;;;;;;18.87;44.17;94831.25;5016528;28;1051;-55
2023/04/22 12:38:26;;;;;;;;;;;;;;;18.96;45.21;94814.75;5016613;28;1053;-56
2023/04/22 12:40:52;;;;;;;;;;;;;;;19.15;44.19;94821.84;5016373;28;1122;-56
2023/04/22 12:43:18;;;;;;;;;;;;;;;19.52;43.39;94813.78;5016081;28;1993;-56
2023/04/22 12:45:45;;;;;;;;;;;;;;;19.75;44.45;94806.88;5016450;28;979;-56
2023/04/22 12:48:11;;;;;;;;;;;;;;;19.97;43.54;94812.66;5016106;28;978;-56
2023/04/22 12:50:37;;;;;;;;;;;;;;;19.99;40.90;94815.97;5016354;28;1042;-56
2023/04/22 12:53:03;;;;;;;;;;;;;;;20.23;41.91;94820.47;5016080;28;1101;-56
2023/04/22 12:55:29;;;;;;;;;;;;;;;20.25;39.78;94820.25;5016191;28;1034;-56
2023/04/22 12:57:55;;;;;;;;;;;;;;;20.48;39.19;94808.63;5015972;28;1046;-56
2023/04/22 13:00:22;;;;;;;;;;;;;;;20.55;37.96;94808.56;5016182;28;986;-57
2023/04/22 13:02:48;;;;;;;;;;;;;;;20.59;38.15;94809.75;5015877;28;1914;-57
2023/04/22 13:05:15;;;;;;;;;;;;;;;20.60;37.98;94814.13;5016178;28;959;-57
2023/04/22 13:07:41;;;;;;;;;;;;;;;20.57;39.22;94809.16;5015697;28;1026;-57